Observation data for Northwest San Angelo on 07/04/2020      Previous  Date  Next       Current Mesonet Observations  Soil Data  Daily Summary Page  Observations in Plain Language
KASU 040500Z 10004KT 25/14 A30 RMK A01 T02450141  RH  055%=      5-min Rain = 0
KASU 040505Z 10003KT 25/14 A30 RMK A01 T02490137  RH  052%=      5-min Rain = 0
KASU 040510Z 11002KT 25/14 A30 RMK A01 T02500138  RH  052%=      5-min Rain = 0
KASU 040515Z 12001KT 25/14 A30 RMK A01 T02490139  RH  053%=      5-min Rain = 0
KASU 040520Z 06001KT 25/14 A3001 RMK A01 T02480141  RH  054%=      5-min Rain = 0
KASU 040525Z 11001KT 25/15 A3001 RMK A01 T02490146  RH  055%=      5-min Rain = 0
KASU 040530Z 14001KT 25/14 A30 RMK A01 T02470144  RH  055%=      5-min Rain = 0
KASU 040535Z 15001KT 25/15 A30 RMK A01 T02460147  RH  056%=      5-min Rain = 0
KASU 040540Z 16002KT 25/14 A30 RMK A01 T02460143  RH  055%=      5-min Rain = 0
KASU 040545Z 16002KT 25/14 A30 RMK A01 T02470141  RH  054%=      5-min Rain = 0
KASU 040550Z 16002KT 25/14 A30 RMK A01 T02480143  RH  054%=      5-min Rain = 0
KASU 040555Z 17002KT 25/15 A30 RMK A01 T02470147  RH  056%=      5-min Rain = 0
KASU 040600Z 17002KT 25/14 A30 RMK A01 T02490138  RH  052%=      5-min Rain = 0
KASU 040605Z 19002KT 25/14 A30 RMK A01 T02500141  RH  053%=      5-min Rain = 0
KASU 040610Z 20003KT 25/15 A30 RMK A01 T02490149  RH  056%=      5-min Rain = 0
KASU 040615Z 20004KT 25/15 A2999 RMK A01 T02520146  RH  054%=      5-min Rain = 0
KASU 040620Z 21004KT 25/14 A2999 RMK A01 T02540143  RH  052%=      5-min Rain = 0
KASU 040625Z 22004KT 26/14 A2999 RMK A01 T02560140  RH  051%=      5-min Rain = 0
KASU 040630Z 22004KT 26/14 A2999 RMK A01 T02560142  RH  051%=      5-min Rain = 0
KASU 040635Z 22003KT 26/14 A2999 RMK A01 T02570143  RH  051%=      5-min Rain = 0
KASU 040640Z 22003KT 26/14 A2999 RMK A01 T02550144  RH  053%=      5-min Rain = 0
KASU 040645Z 22002KT 25/14 A2999 RMK A01 T02530143  RH  053%=      5-min Rain = 0
KASU 040650Z 22000KT 25/14 A2999 RMK A01 T02530141  RH  052%=      5-min Rain = 0
KASU 040655Z 25000KT 25/14 A2999 RMK A01 T02540140  RH  052%=      5-min Rain = 0
KASU 040700Z 00000KT 24/16 A2999 RMK A01 T02430155  RH  061%=      5-min Rain = 0
KASU 040705Z 30000KT 24/15 A2999 RMK A01 T02370154  RH  062%=      5-min Rain = 0
KASU 040710Z 30000KT 24/16 A2999 RMK A01 T02350157  RH  064%=      5-min Rain = 0
KASU 040715Z 00001KT 23/16 A2999 RMK A01 T02320157  RH  066%=      5-min Rain = 0
KASU 040720Z 01001KT 23/16 A2999 RMK A01 T02320157  RH  066%=      5-min Rain = 0
KASU 040725Z 02001KT 23/16 A2999 RMK A01 T02290157  RH  067%=      5-min Rain = 0
KASU 040730Z 03001KT 23/16 A2999 RMK A01 T02280162  RH  070%=      5-min Rain = 0
KASU 040735Z 04001KT 23/16 A2999 RMK A01 T02250163  RH  072%=      5-min Rain = 0
KASU 040740Z 06003KT 22/16 A2999 RMK A01 T02220157  RH  070%=      5-min Rain = 0
KASU 040745Z 07004KT 22/16 A2999 RMK A01 T02190155  RH  070%=      5-min Rain = 0
KASU 040750Z 06002KT 22/15 A2999 RMK A01 T02200153  RH  068%=      5-min Rain = 0
KASU 040755Z 35000KT 22/16 A2999 RMK A01 T02220161  RH  072%=      5-min Rain = 0
KASU 040800Z 33000KT 22/16 A2999 RMK A01 T02200161  RH  073%=      5-min Rain = 0
KASU 040805Z 00000KT 22/16 A2999 RMK A01 T02210158  RH  071%=      5-min Rain = 0
KASU 040810Z 33000KT 22/16 A2999 RMK A01 T02190158  RH  072%=      5-min Rain = 0
KASU 040815Z 32001KT 22/16 A2999 RMK A01 T02160160  RH  074%=      5-min Rain = 0
KASU 040820Z 33002KT 21/16 A2999 RMK A01 T02140159  RH  074%=      5-min Rain = 0
KASU 040825Z 31001KT 21/16 A2998 RMK A01 T02130157  RH  074%=      5-min Rain = 0
KASU 040830Z 31002KT 21/16 A2998 RMK A01 T02120159  RH  075%=      5-min Rain = 0
KASU 040835Z 31002KT 21/16 A2998 RMK A01 T02110159  RH  075%=      5-min Rain = 0
KASU 040840Z 32003KT 21/16 A2998 RMK A01 T02080160  RH  077%=      5-min Rain = 0
KASU 040845Z 31003KT 21/16 A2998 RMK A01 T02070158  RH  077%=      5-min Rain = 0
KASU 040850Z 31002KT 21/16 A2998 RMK A01 T02050159  RH  078%=      5-min Rain = 0
KASU 040855Z 31002KT 21/16 A2998 RMK A01 T02050158  RH  078%=      5-min Rain = 0
KASU 040900Z 35002KT 21/16 A2998 RMK A01 T02090156  RH  075%=      5-min Rain = 0
KASU 040905Z 04001KT 21/16 A2999 RMK A01 T02130157  RH  074%=      5-min Rain = 0
KASU 040910Z 07002KT 21/16 A2999 RMK A01 T02110158  RH  075%=      5-min Rain = 0
KASU 040915Z 05001KT 21/16 A2999 RMK A01 T02090161  RH  077%=      5-min Rain = 0
KASU 040920Z 16000KT 21/16 A2999 RMK A01 T02080162  RH  079%=      5-min Rain = 0
KASU 040925Z 26001KT 21/16 A2999 RMK A01 T02080158  RH  077%=      5-min Rain = 0
KASU 040930Z 27001KT 21/16 A2999 RMK A01 T02080158  RH  077%=      5-min Rain = 0
KASU 040935Z 32001KT 21/16 A2999 RMK A01 T02090156  RH  075%=      5-min Rain = 0
KASU 040940Z 34004KT 20/16 A2999 RMK A01 T02030160  RH  080%=      5-min Rain = 0
KASU 040945Z 33004KT 20/16 A2999 RMK A01 T02000159  RH  081%=      5-min Rain = 0
KASU 040950Z 33005KT 20/16 A2999 RMK A01 T01990157  RH  080%=      5-min Rain = 0
KASU 040955Z 32004KT 20/16 A2999 RMK A01 T02010155  RH  078%=      5-min Rain = 0
KASU 041000Z 30004KT 20/15 A2999 RMK A01 T02020154  RH  077%=      5-min Rain = 0
KASU 041005Z 28003KT 21/16 A2999 RMK A01 T02050155  RH  076%=      5-min Rain = 0
KASU 041010Z 29003KT 21/16 A2999 RMK A01 T02130157  RH  074%=      5-min Rain = 0
KASU 041015Z 30003KT 22/16 A2999 RMK A01 T02160158  RH  073%=      5-min Rain = 0
KASU 041020Z 30002KT 22/16 A2999 RMK A01 T02210160  RH  072%=      5-min Rain = 0
KASU 041025Z 33002KT 22/16 A2999 RMK A01 T02200160  RH  072%=      5-min Rain = 0
KASU 041030Z 35002KT 22/16 A2999 RMK A01 T02170163  RH  075%=      5-min Rain = 0
KASU 041035Z 35004KT 22/16 A2999 RMK A01 T02180162  RH  074%=      5-min Rain = 0
KASU 041040Z 35003KT 21/16 A30 RMK A01 T02090161  RH  078%=      5-min Rain = 0
KASU 041045Z 34003KT 20/16 A30 RMK A01 T02040160  RH  080%=      5-min Rain = 0
KASU 041050Z 33003KT 21/16 A30 RMK A01 T02060160  RH  079%=      5-min Rain = 0
KASU 041055Z 33003KT 21/16 A30 RMK A01 T02070159  RH  078%=      5-min Rain = 0
KASU 041100Z 33003KT 21/16 A30 RMK A01 T02080158  RH  077%=      5-min Rain = 0
KASU 041105Z 32004KT 21/16 A2999 RMK A01 T02070160  RH  078%=      5-min Rain = 0
KASU 041110Z 29003KT 20/16 A2999 RMK A01 T02040160  RH  080%=      5-min Rain = 0
KASU 041115Z 26003KT 21/16 A30 RMK A01 T02070160  RH  078%=      5-min Rain = 0
KASU 041120Z 26003KT 22/16 A30 RMK A01 T02150161  RH  075%=      5-min Rain = 0
KASU 041125Z 25002KT 22/16 A30 RMK A01 T02210163  RH  073%=      5-min Rain = 0
KASU 041130Z 26003KT 22/17 A30 RMK A01 T02240165  RH  073%=      5-min Rain = 0
KASU 041135Z 28003KT 22/16 A30 RMK A01 T02220164  RH  073%=      5-min Rain = 0
KASU 041140Z 29002KT 22/16 A30 RMK A01 T02180164  RH  075%=      5-min Rain = 0
KASU 041145Z 29002KT 22/16 A30 RMK A01 T02170163  RH  075%=      5-min Rain = 0
KASU 041150Z 29003KT 21/17 A30 RMK A01 T02130165  RH  078%=      5-min Rain = 0
KASU 041155Z 29002KT 21/17 A30 RMK A01 T02100165  RH  079%=      5-min Rain = 0
KASU 041200Z 31002KT 21/17 A3001 RMK A01 T02130165  RH  078%=      5-min Rain = 0
KASU 041205Z 29002KT 22/17 A30 RMK A01 T02150166  RH  077%=      5-min Rain = 0
KASU 041210Z 28002KT 21/17 A30 RMK A01 T02120167  RH  079%=      5-min Rain = 0
KASU 041215Z 28002KT 21/17 A3001 RMK A01 T02110166  RH  079%=      5-min Rain = 0
KASU 041220Z 26003KT 22/17 A3001 RMK A01 T02180168  RH  077%=      5-min Rain = 0
KASU 041225Z 27002KT 23/17 A3001 RMK A01 T02250171  RH  075%=      5-min Rain = 0
KASU 041230Z 32003KT 22/17 A3001 RMK A01 T02220174  RH  078%=      5-min Rain = 0
KASU 041235Z 36002KT 23/17 A3001 RMK A01 T02250174  RH  077%=      5-min Rain = 0
KASU 041240Z 05001KT 23/18 A3001 RMK A01 T02330177  RH  075%=      5-min Rain = 0
KASU 041245Z 05001KT 23/18 A3001 RMK A01 T02330179  RH  075%=      5-min Rain = 0
KASU 041250Z 36001KT 24/18 A3002 RMK A01 T02380181  RH  075%=      5-min Rain = 0
KASU 041255Z 36002KT 24/18 A3002 RMK A01 T02440181  RH  072%=      5-min Rain = 0
KASU 041300Z 03002KT 25/18 A3002 RMK A01 T02480184  RH  071%=      5-min Rain = 0
KASU 041305Z 04001KT 25/18 A3002 RMK A01 T02480181  RH  070%=      5-min Rain = 0
KASU 041310Z 04000KT 25/18 A3003 RMK A01 T02540183  RH  068%=      5-min Rain = 0
KASU 041315Z 26001KT 26/18 A3002 RMK A01 T02560181  RH  067%=      5-min Rain = 0
KASU 041320Z 19002KT 26/18 A3002 RMK A01 T02570184  RH  067%=      5-min Rain = 0
KASU 041325Z 17003KT 26/18 A3002 RMK A01 T02560181  RH  067%=      5-min Rain = 0
KASU 041330Z 18003KT 26/18 A3002 RMK A01 T02560182  RH  067%=      5-min Rain = 0
KASU 041335Z 18004KT 26/18 A3003 RMK A01 T02570183  RH  067%=      5-min Rain = 0
KASU 041340Z 19005KT 26/18 A3002 RMK A01 T02580183  RH  067%=      5-min Rain = 0
KASU 041345Z 21004KT 26/18 A3002 RMK A01 T02560182  RH  067%=      5-min Rain = 0
KASU 041350Z 19003KT 26/18 A3002 RMK A01 T02610183  RH  066%=      5-min Rain = 0
KASU 041355Z 19004KT 26/18 A3002 RMK A01 T02640183  RH  065%=      5-min Rain = 0
KASU 041400Z 17003KT 27/18 A3002 RMK A01 T02660182  RH  063%=      5-min Rain = 0
KASU 041405Z 15003KT 27/18 A3002 RMK A01 T02700182  RH  062%=      5-min Rain = 0
KASU 041410Z 16003KT 27/18 A3002 RMK A01 T02710183  RH  062%=      5-min Rain = 0
KASU 041415Z 17005KT 27/19 A3002 RMK A01 T02730186  RH  062%=      5-min Rain = 0
KASU 041420Z 20004KT 27/19 A3002 RMK A01 T02730188  RH  063%=      5-min Rain = 0
KASU 041425Z 19005KT 27/19 A3002 RMK A01 T02720186  RH  063%=      5-min Rain = 0
KASU 041430Z 20004KT 27/19 A3002 RMK A01 T02710186  RH  063%=      5-min Rain = 0
KASU 041435Z 21004KT 27/19 A3002 RMK A01 T02740188  RH  063%=      5-min Rain = 0
KASU 041440Z 19004KT 28/19 A3002 RMK A01 T02800189  RH  061%=      5-min Rain = 0
KASU 041445Z 18004G11KT 29/19 A3002 RMK A01 T02860189  RH  059%=      5-min Rain = 0
KASU 041450Z 21004KT 28/19 A3002 RMK A01 T02840189  RH  060%=      5-min Rain = 0
KASU 041455Z 22003KT 29/19 A3002 RMK A01 T02850190  RH  060%=      5-min Rain = 0
KASU 041500Z 21007KT 29/19 A3002 RMK A01 T02870191  RH  059%=      5-min Rain = 0
KASU 041505Z 22009KT 29/19 A3002 RMK A01 T02850190  RH  060%=      5-min Rain = 0
KASU 041510Z 22006KT 29/19 A3002 RMK A01 T02880191  RH  059%=      5-min Rain = 0
KASU 041515Z 21007KT 29/19 A3002 RMK A01 T02900192  RH  059%=      5-min Rain = 0
KASU 041520Z 20008KT 29/19 A3002 RMK A01 T02920191  RH  058%=      5-min Rain = 0
KASU 041525Z 21007KT 30/19 A3002 RMK A01 T02970193  RH  057%=      5-min Rain = 0
KASU 041530Z 19006KT 30/19 A3002 RMK A01 T02980193  RH  056%=      5-min Rain = 0
KASU 041535Z 21009KT 30/19 A3002 RMK A01 T03000192  RH  055%=      5-min Rain = 0
KASU 041540Z 21007KT 30/19 A3002 RMK A01 T02950191  RH  056%=      5-min Rain = 0
KASU 041545Z 21006KT 30/19 A3002 RMK A01 T02970193  RH  056%=      5-min Rain = 0
KASU 041550Z 23005KT 30/19 A3002 RMK A01 T03010193  RH  055%=      5-min Rain = 0
KASU 041555Z 24006KT 30/19 A3002 RMK A01 T03010192  RH  055%=      5-min Rain = 0
KASU 041600Z 22005KT 30/19 A3002 RMK A01 T03030192  RH  054%=      5-min Rain = 0
KASU 041605Z 21006G11KT 31/19 A3002 RMK A01 T03120194  RH  052%=      5-min Rain = 0
KASU 041610Z 24005KT 31/19 A3002 RMK A01 T03110191  RH  052%=      5-min Rain = 0
KASU 041615Z 20004KT 31/19 A3002 RMK A01 T03140192  RH  051%=      5-min Rain = 0
KASU 041620Z 20008KT 32/19 A3002 RMK A01 T03170187  RH  049%=      5-min Rain = 0
KASU 041625Z 20006KT 32/19 A3002 RMK A01 T03170187  RH  049%=      5-min Rain = 0
KASU 041630Z 20004KT 32/19 A3002 RMK A01 T03170189  RH  049%=      5-min Rain = 0
KASU 041635Z 20006KT 32/19 A3001 RMK A01 T03200186  RH  047%=      5-min Rain = 0
KASU 041640Z 18004KT 33/18 A3001 RMK A01 T03260181  RH  044%=      5-min Rain = 0
KASU 041645Z 19004G9KT 33/18 A3001 RMK A01 T03280180  RH  044%=      5-min Rain = 0
KASU 041650Z 19004KT 33/18 A3001 RMK A01 T03300180  RH  043%=      5-min Rain = 0
KASU 041655Z 20005KT 33/18 A3001 RMK A01 T03340180  RH  042%=      5-min Rain = 0
KASU 041700Z 22005KT 33/17 A3001 RMK A01 T03290171  RH  041%=      5-min Rain = 0
KASU 041705Z 25003KT 33/17 A3001 RMK A01 T03340172  RH  040%=      5-min Rain = 0
KASU 041710Z 23002KT 34/17 A3001 RMK A01 T03370170  RH  039%=      5-min Rain = 0
KASU 041715Z 24003KT 34/17 A3001 RMK A01 T03380172  RH  039%=      5-min Rain = 0
KASU 041720Z 27005KT 34/17 A3001 RMK A01 T03360171  RH  039%=      5-min Rain = 0
KASU 041725Z 28003KT 34/17 A3001 RMK A01 T03360168  RH  038%=      5-min Rain = 0
KASU 041730Z 01003KT 34/17 A3001 RMK A01 T03410166  RH  037%=      5-min Rain = 0
KASU 041735Z 00002KT 35/17 A3001 RMK A01 T03450168  RH  037%=      5-min Rain = 0
KASU 041740Z 24002KT 35/17 A3001 RMK A01 T03450166  RH  036%=      5-min Rain = 0
KASU 041745Z 20002KT 35/17 A3001 RMK A01 T03480167  RH  036%=      5-min Rain = 0
KASU 041750Z 14003KT 35/16 A3001 RMK A01 T03530157  RH  033%=      5-min Rain = 0
KASU 041755Z 10005KT 36/15 A3001 RMK A01 T03550148  RH  030%=      5-min Rain = 0
KASU 041800Z 05005KT 35/15 A30 RMK A01 T03520147  RH  031%=      5-min Rain = 0
KASU 041805Z 07001KT 35/14 A30 RMK A01 T03520137  RH  029%=      5-min Rain = 0
KASU 041810Z 14005G10KT 36/15 A30 RMK A01 T03560146  RH  030%=      5-min Rain = 0
KASU 041815Z 14004G9KT 35/15 A30 RMK A01 T03540146  RH  030%=      5-min Rain = 0
KASU 041820Z 16004G9KT 35/15 A30 RMK A01 T03530145  RH  030%=      5-min Rain = 0
KASU 041825Z 17003KT 36/14 A30 RMK A01 T03560143  RH  029%=      5-min Rain = 0
KASU 041830Z 14003G8KT 36/14 A2999 RMK A01 T03570144  RH  029%=      5-min Rain = 0
KASU 041835Z 12005KT 36/15 A2999 RMK A01 T03580150  RH  030%=      5-min Rain = 0
KASU 041840Z 14007G13KT 36/15 A2999 RMK A01 T03590150  RH  030%=      5-min Rain = 0
KASU 041845Z 14007KT 36/15 A2999 RMK A01 T03570147  RH  030%=      5-min Rain = 0
KASU 041850Z 19003G9KT 36/15 A2999 RMK A01 T03580148  RH  030%=      5-min Rain = 0
KASU 041855Z 14004G9KT 36/15 A2999 RMK A01 T03610151  RH  030%=      5-min Rain = 0
KASU 041900Z 12004KT 36/15 A2999 RMK A01 T03600145  RH  029%=      5-min Rain = 0
KASU 041905Z 11007G13KT 36/15 A2998 RMK A01 T03610148  RH  029%=      5-min Rain = 0
KASU 041910Z 12005G11KT 37/14 A2998 RMK A01 T03650143  RH  028%=      5-min Rain = 0
KASU 041915Z 09008KT 36/14 A2998 RMK A01 T03630144  RH  028%=      5-min Rain = 0
KASU 041920Z 09007G12KT 36/15 A2998 RMK A01 T03620145  RH  029%=      5-min Rain = 0
KASU 041925Z 10005KT 36/14 A2998 RMK A01 T03600139  RH  028%=      5-min Rain = 0
KASU 041930Z 11006G12KT 35/14 A2998 RMK A01 T03540137  RH  028%=      5-min Rain = 0
KASU 041935Z 15009KT 36/13 A2997 RMK A01 T03640131  RH  026%=      5-min Rain = 0
KASU 041940Z 15008G13KT 37/14 A2997 RMK A01 T03660137  RH  027%=      5-min Rain = 0
KASU 041945Z 11006KT 37/13 A2997 RMK A01 T03670130  RH  025%=      5-min Rain = 0
KASU 041950Z 11007G12KT 36/14 A2997 RMK A01 T03640138  RH  027%=      5-min Rain = 0
KASU 041955Z 11010KT 36/14 A2997 RMK A01 T03630144  RH  028%=      5-min Rain = 0
KASU 042000Z 08009KT 37/14 A2997 RMK A01 T03660138  RH  027%=      5-min Rain = 0
KASU 042005Z 08005G12KT 36/14 A2996 RMK A01 T03630137  RH  027%=      5-min Rain = 0
KASU 042010Z 16007G13KT 37/14 A2996 RMK A01 T03710139  RH  026%=      5-min Rain = 0
KASU 042015Z 11005G10KT 37/13 A2996 RMK A01 T03690129  RH  025%=      5-min Rain = 0
KASU 042020Z 15007KT 37/14 A2996 RMK A01 T03710144  RH  027%=      5-min Rain = 0
KASU 042025Z 11004KT 37/14 A2995 RMK A01 T03700138  RH  026%=      5-min Rain = 0
KASU 042030Z 10006G15KT 37/13 A2995 RMK A01 T03690133  RH  026%=      5-min Rain = 0
KASU 042035Z 14005KT 37/13 A2995 RMK A01 T03720129  RH  024%=      5-min Rain = 0
KASU 042040Z 09008G14KT 38/12 A2995 RMK A01 T03750118  RH  022%=      5-min Rain = 0
KASU 042045Z 12010G15KT 37/12 A2995 RMK A01 T03720118  RH  023%=      5-min Rain = 0
KASU 042050Z 10004KT 37/11 A2995 RMK A01 T03720110  RH  021%=      5-min Rain = 0
KASU 042055Z 13008G13KT 37/13 A2995 RMK A01 T03740132  RH  025%=      5-min Rain = 0
KASU 042100Z 15009G14KT 37/14 A2994 RMK A01 T03720139  RH  026%=      5-min Rain = 0
KASU 042105Z 12010KT 37/14 A2994 RMK A01 T03710135  RH  025%=      5-min Rain = 0
KASU 042110Z 11008G13KT 37/13 A2994 RMK A01 T03700134  RH  026%=      5-min Rain = 0
KASU 042115Z 11008G13KT 37/14 A2994 RMK A01 T03710136  RH  026%=      5-min Rain = 0
KASU 042120Z 13005G12KT 37/14 A2994 RMK A01 T03700136  RH  026%=      5-min Rain = 0
KASU 042125Z 17007G12KT 37/14 A2994 RMK A01 T03720136  RH  026%=      5-min Rain = 0
KASU 042130Z 19005G10KT 37/13 A2993 RMK A01 T03710134  RH  025%=      5-min Rain = 0
KASU 042135Z 10007KT 37/13 A2993 RMK A01 T03730133  RH  025%=      5-min Rain = 0
KASU 042140Z 09006G11KT 37/13 A2993 RMK A01 T03710132  RH  025%=      5-min Rain = 0
KASU 042145Z 16005KT 37/13 A2993 RMK A01 T03740134  RH  025%=      5-min Rain = 0
KASU 042150Z 15005KT 37/14 A2992 RMK A01 T03720135  RH  025%=      5-min Rain = 0
KASU 042155Z 12006KT 37/14 A2992 RMK A01 T03730135  RH  025%=      5-min Rain = 0
KASU 042200Z 11007KT 37/13 A2991 RMK A01 T03730133  RH  025%=      5-min Rain = 0
KASU 042205Z 13006G11KT 37/13 A2991 RMK A01 T03720132  RH  025%=      5-min Rain = 0
KASU 042210Z 15009G15KT 38/13 A299 RMK A01 T03760130  RH  024%=      5-min Rain = 0
KASU 042215Z 16006KT 38/13 A299 RMK A01 T03750126  RH  024%=      5-min Rain = 0
KASU 042220Z 17005KT 38/13 A299 RMK A01 T03760129  RH  024%=      5-min Rain = 0
KASU 042225Z 14004KT 38/13 A299 RMK A01 T03760129  RH  024%=      5-min Rain = 0
KASU 042230Z 18004KT 38/13 A2989 RMK A01 T03780132  RH  024%=      5-min Rain = 0
KASU 042235Z 13004G9KT 38/13 A2989 RMK A01 T03760132  RH  024%=      5-min Rain = 0
KASU 042240Z 15009G16KT 38/12 A2989 RMK A01 T03750121  RH  023%=      5-min Rain = 0
KASU 042245Z 15009KT 38/13 A2989 RMK A01 T03770125  RH  023%=      5-min Rain = 0
KASU 042250Z 16007KT 38/11 A2989 RMK A01 T03750114  RH  022%=      5-min Rain = 0
KASU 042255Z 15007KT 38/12 A2988 RMK A01 T03770117  RH  022%=      5-min Rain = 0
KASU 042300Z 17007G12KT 38/12 A2988 RMK A01 T03770116  RH  022%=      5-min Rain = 0
KASU 042305Z 16010G15KT 38/12 A2988 RMK A01 T03770116  RH  022%=      5-min Rain = 0
KASU 042310Z 16010G15KT 38/11 A2988 RMK A01 T03750110  RH  021%=      5-min Rain = 0
KASU 042315Z 16010G16KT 37/11 A2988 RMK A01 T03740113  RH  022%=      5-min Rain = 0
KASU 042320Z 18011KT 37/11 A2988 RMK A01 T03720109  RH  021%=      5-min Rain = 0
KASU 042325Z 17006KT 37/11 A2988 RMK A01 T03740114  RH  022%=      5-min Rain = 0
KASU 042330Z 15007KT 38/11 A2988 RMK A01 T03760113  RH  021%=      5-min Rain = 0
KASU 042335Z 16008KT 37/11 A2988 RMK A01 T03740106  RH  021%=      5-min Rain = 0
KASU 042340Z 18005KT 37/11 A2987 RMK A01 T03720105  RH  021%=      5-min Rain = 0
KASU 042345Z 18008G13KT 37/11 A2987 RMK A01 T03730106  RH  021%=      5-min Rain = 0
KASU 042350Z 16009KT 37/11 A2987 RMK A01 T03710106  RH  021%=      5-min Rain = 0
KASU 042355Z 13006KT 37/11 A2987 RMK A01 T03700105  RH  021%=      5-min Rain = 0
KASU 050000Z 14007KT 37/11 A2987 RMK A01 T03700109  RH  022%=      5-min Rain = 0
KASU 050005Z 16008KT 37/11 A2987 RMK A01 T03690105  RH  021%=      5-min Rain = 0
KASU 050010Z 16006KT 37/11 A2987 RMK A01 T03690106  RH  021%=      5-min Rain = 0
KASU 050015Z 16006KT 37/11 A2987 RMK A01 T03690106  RH  021%=      5-min Rain = 0
KASU 050020Z 16008KT 37/10 A2987 RMK A01 T03680102  RH  021%=      5-min Rain = 0
KASU 050025Z 18006KT 37/10 A2987 RMK A01 T03680104  RH  021%=      5-min Rain = 0
KASU 050030Z 16007KT 37/10 A2987 RMK A01 T03670103  RH  021%=      5-min Rain = 0
KASU 050035Z 14006KT 37/11 A2987 RMK A01 T03650111  RH  022%=      5-min Rain = 0
KASU 050040Z 15006KT 36/11 A2987 RMK A01 T03630111  RH  023%=      5-min Rain = 0
KASU 050045Z 18005KT 36/11 A2987 RMK A01 T03640114  RH  023%=      5-min Rain = 0
KASU 050050Z 17006KT 36/11 A2987 RMK A01 T03620114  RH  023%=      5-min Rain = 0
KASU 050055Z 18005KT 36/11 A2987 RMK A01 T03620114  RH  023%=      5-min Rain = 0
KASU 050100Z 19005KT 36/12 A2988 RMK A01 T03600115  RH  024%=      5-min Rain = 0
KASU 050105Z 18005KT 36/11 A2988 RMK A01 T03590114  RH  024%=      5-min Rain = 0
KASU 050110Z 17004KT 36/12 A2988 RMK A01 T03560118  RH  025%=      5-min Rain = 0
KASU 050115Z 17004KT 36/12 A2988 RMK A01 T03550117  RH  025%=      5-min Rain = 0
KASU 050120Z 17004KT 35/12 A2989 RMK A01 T03530117  RH  025%=      5-min Rain = 0
KASU 050125Z 17003KT 35/12 A2989 RMK A01 T03500117  RH  025%=      5-min Rain = 0
KASU 050130Z 18003KT 35/12 A2989 RMK A01 T03480118  RH  026%=      5-min Rain = 0
KASU 050135Z 18003KT 35/12 A2989 RMK A01 T03450119  RH  026%=      5-min Rain = 0
KASU 050140Z 18003KT 34/12 A2989 RMK A01 T03430116  RH  026%=      5-min Rain = 0
KASU 050145Z 17002KT 34/13 A2989 RMK A01 T03390127  RH  029%=      5-min Rain = 0
KASU 050150Z 16002KT 33/13 A2989 RMK A01 T03270134  RH  032%=      5-min Rain = 0
KASU 050155Z 14002KT 33/13 A2989 RMK A01 T03270125  RH  031%=      5-min Rain = 0
KASU 050200Z 12002KT 33/12 A2989 RMK A01 T03250124  RH  031%=      5-min Rain = 0
KASU 050205Z 13002KT 32/12 A2989 RMK A01 T03230121  RH  030%=      5-min Rain = 0
KASU 050210Z 13002KT 32/12 A2989 RMK A01 T03220121  RH  030%=      5-min Rain = 0
KASU 050215Z 13001KT 32/14 A299 RMK A01 T03180135  RH  034%=      5-min Rain = 0
KASU 050220Z 09001KT 32/13 A299 RMK A01 T03160131  RH  034%=      5-min Rain = 0
KASU 050225Z 06002KT 31/13 A299 RMK A01 T03120128  RH  034%=      5-min Rain = 0
KASU 050230Z 06001KT 31/14 A299 RMK A01 T03100139  RH  037%=      5-min Rain = 0
KASU 050235Z 07001KT 30/17 A299 RMK A01 T03030168  RH  046%=      5-min Rain = 0
KASU 050240Z 06001KT 30/15 A2991 RMK A01 T02980153  RH  043%=      5-min Rain = 0
KASU 050245Z 07001KT 30/14 A2991 RMK A01 T02990142  RH  040%=      5-min Rain = 0
KASU 050250Z 07002KT 30/15 A2991 RMK A01 T02960151  RH  043%=      5-min Rain = 0
KASU 050255Z 07002KT 29/15 A2991 RMK A01 T02920152  RH  045%=      5-min Rain = 0
KASU 050300Z 05002KT 29/15 A2991 RMK A01 T02900154  RH  046%=      5-min Rain = 0
KASU 050305Z 06001KT 29/17 A2991 RMK A01 T02880168  RH  051%=      5-min Rain = 0
KASU 050310Z 06001KT 29/16 A2991 RMK A01 T02870160  RH  048%=      5-min Rain = 0
KASU 050315Z 05002KT 29/15 A2992 RMK A01 T02910153  RH  045%=      5-min Rain = 0
KASU 050320Z 04002KT 29/17 A2992 RMK A01 T02860166  RH  051%=      5-min Rain = 0
KASU 050325Z 03001KT 28/17 A2992 RMK A01 T02810167  RH  053%=      5-min Rain = 0
KASU 050330Z 03001KT 28/16 A2992 RMK A01 T02770161  RH  052%=      5-min Rain = 0
KASU 050335Z 03002KT 28/16 A2992 RMK A01 T02760156  RH  050%=      5-min Rain = 0
KASU 050340Z 03001KT 28/15 A2992 RMK A01 T02750154  RH  050%=      5-min Rain = 0
KASU 050345Z 04002KT 27/15 A2992 RMK A01 T02730152  RH  050%=      5-min Rain = 0
KASU 050350Z 05002KT 27/15 A2992 RMK A01 T02720153  RH  051%=      5-min Rain = 0
KASU 050355Z 04002KT 27/16 A2992 RMK A01 T02700161  RH  054%=      5-min Rain = 0
KASU 050400Z 05002KT 27/16 A2991 RMK A01 T02680162  RH  055%=      5-min Rain = 0
KASU 050405Z 05001KT 27/16 A2991 RMK A01 T02670162  RH  055%=      5-min Rain = 0
KASU 050410Z 04000KT 27/16 A2991 RMK A01 T02660156  RH  053%=      5-min Rain = 0
KASU 050415Z 07002KT 27/15 A2991 RMK A01 T02670150  RH  051%=      5-min Rain = 0
KASU 050420Z 07001KT 27/15 A299 RMK A01 T02670147  RH  050%=      5-min Rain = 0
KASU 050425Z 05001KT 27/15 A299 RMK A01 T02690149  RH  050%=      5-min Rain = 0
KASU 050430Z 06004KT 27/15 A2991 RMK A01 T02650154  RH  053%=      5-min Rain = 0
KASU 050435Z 04004KT 26/15 A2991 RMK A01 T02640145  RH  050%=      5-min Rain = 0
KASU 050440Z 04003KT 27/14 A2991 RMK A01 T02700137  RH  046%=      5-min Rain = 0
KASU 050445Z 05003KT 27/14 A2991 RMK A01 T02720138  RH  045%=      5-min Rain = 0
KASU 050450Z 06003KT 27/14 A2991 RMK A01 T02700139  RH  046%=      5-min Rain = 0
KASU 050455Z 09004KT 27/14 A2991 RMK A01 T02650144  RH  049%=      5-min Rain = 0

Page generated in 0.0159 seconds.